createdAt,value
2019-05-02T00:04:55.911Z,25.00
2019-05-02T00:08:11.152Z,25.00
2019-05-02T00:18:09.485Z,25.00
2019-05-02T00:21:32.958Z,25.00
2019-05-02T00:24:46.996Z,25.00
2019-05-02T00:27:50.278Z,25.00
2019-05-02T00:30:53.554Z,25.00
2019-05-02T00:34:16.230Z,25.00
2019-05-02T00:37:29.690Z,25.00
2019-05-02T00:40:52.360Z,25.00
2019-05-02T00:44:05.989Z,25.00
2019-05-02T00:47:29.589Z,25.00
2019-05-02T00:54:05.673Z,25.00
2019-05-02T00:57:21.774Z,25.00
2019-05-02T01:00:36.570Z,25.00
2019-05-02T01:04:18.435Z,25.00
2019-05-02T01:07:31.935Z,25.00
2019-05-02T01:10:56.881Z,25.00
2019-05-02T01:14:09.780Z,24.90
2019-05-02T01:17:32.430Z,25.00
2019-05-02T01:20:47.927Z,24.90
2019-05-02T01:24:03.008Z,25.00
2019-05-02T01:31:13.150Z,24.90
2019-05-02T01:34:29.274Z,24.90
2019-05-02T01:38:11.140Z,24.90
2019-05-02T01:41:29.255Z,24.90
2019-05-02T01:44:31.180Z,24.90
2019-05-02T01:47:44.375Z,24.90
2019-05-02T01:51:09.939Z,24.90
2019-05-02T01:54:22.014Z,24.90
2019-05-02T01:57:25.299Z,24.90
2019-05-02T02:00:40.930Z,24.90
2019-05-02T02:04:03.202Z,24.90
2019-05-02T02:07:20.114Z,24.90
2019-05-02T02:10:43.606Z,24.90
2019-05-02T02:13:55.630Z,24.80
2019-05-02T02:17:18.309Z,24.90
2019-05-02T02:20:39.339Z,24.90
2019-05-02T02:27:31.472Z,24.90
2019-05-02T02:30:45.015Z,24.90
2019-05-02T02:34:07.699Z,24.80
2019-05-02T02:37:20.646Z,24.90
2019-05-02T02:40:43.317Z,24.90
2019-05-02T02:44:17.904Z,24.90
2019-05-02T02:47:31.397Z,24.90
2019-05-02T02:50:54.080Z,24.90
2019-05-02T02:54:09.400Z,24.80
2019-05-02T02:57:27.898Z,24.80
2019-05-02T03:00:47.557Z,24.90
2019-05-02T03:04:09.695Z,24.80
2019-05-02T03:07:25.687Z,24.80
2019-05-02T03:10:39.997Z,24.80
2019-05-02T03:17:26.747Z,24.80
2019-05-02T03:20:40.597Z,24.80
2019-05-02T03:24:05.800Z,24.70
2019-05-02T03:27:18.421Z,24.80
2019-05-02T03:30:37.059Z,24.80
2019-05-02T03:34:00.771Z,24.80
2019-05-02T03:37:13.660Z,24.80
2019-05-02T03:40:38.982Z,24.80
2019-05-02T03:43:50.195Z,24.80
2019-05-02T03:47:12.949Z,24.80
2019-05-02T03:50:32.907Z,24.80
2019-05-02T03:53:50.764Z,24.70
2019-05-02T03:57:06.007Z,24.80
2019-05-02T04:00:23.794Z,24.80
2019-05-02T04:03:43.992Z,24.80
2019-05-02T04:07:01.015Z,24.70
2019-05-02T04:10:42.822Z,24.70
2019-05-02T04:13:58.105Z,24.80
2019-05-02T04:17:11.455Z,24.80
2019-05-02T04:20:16.169Z,24.80
2019-05-02T04:23:21.321Z,24.80
2019-05-02T04:26:53.708Z,24.80
2019-05-02T04:30:10.272Z,24.80
2019-05-02T04:33:14.292Z,24.70
2019-05-02T04:36:36.961Z,24.80
2019-05-02T04:39:53.649Z,24.70
2019-05-02T04:43:14.912Z,24.70
2019-05-02T04:49:52.154Z,24.70
2019-05-02T04:53:08.630Z,24.70
2019-05-02T04:56:12.043Z,24.70
2019-05-02T04:59:34.719Z,24.70
2019-05-02T05:02:58.064Z,24.70
2019-05-02T05:06:13.396Z,24.70
2019-05-02T05:09:28.899Z,24.70
2019-05-02T05:12:42.477Z,24.70
2019-05-02T05:16:10.060Z,24.70
2019-05-02T05:19:23.091Z,24.70
2019-05-02T05:22:44.291Z,24.70
2019-05-02T05:25:47.898Z,24.70
2019-05-02T05:29:13.902Z,24.70
2019-05-02T05:32:28.209Z,24.70
2019-05-02T05:35:43.372Z,24.70
2019-05-02T05:38:47.806Z,24.70
2019-05-02T05:42:01.415Z,24.70
2019-05-02T05:49:00.715Z,24.70
2019-05-02T05:52:23.372Z,24.70
2019-05-02T05:55:38.305Z,24.70
2019-05-02T05:59:01.803Z,24.70
2019-05-02T06:02:15.439Z,24.70
2019-05-02T06:05:41.211Z,24.70
2019-05-02T06:08:43.115Z,24.70
2019-05-02T06:12:05.810Z,24.70
2019-05-02T06:15:19.016Z,24.70
2019-05-02T06:18:22.375Z,24.70
2019-05-02T06:21:40.053Z,24.70
2019-05-02T06:25:11.720Z,24.70
2019-05-02T06:28:36.346Z,24.70
2019-05-02T06:31:49.906Z,24.70
2019-05-02T06:35:17.167Z,24.60
2019-05-02T06:38:27.376Z,24.70
2019-05-02T06:41:52.165Z,24.70
2019-05-02T06:45:06.811Z,24.70
2019-05-02T06:48:29.516Z,24.70
2019-05-02T06:51:44.794Z,24.70
2019-05-02T06:54:59.088Z,24.70
2019-05-02T06:58:21.841Z,24.60
2019-05-02T07:01:25.109Z,24.70
2019-05-02T07:04:47.778Z,24.70
2019-05-02T07:11:22.644Z,24.70
2019-05-02T07:14:45.866Z,24.70
2019-05-02T07:18:05.437Z,24.70
2019-05-02T07:21:23.634Z,24.70
2019-05-02T07:24:38.323Z,24.70
2019-05-02T07:27:51.752Z,24.70
2019-05-02T07:31:12.128Z,24.70
2019-05-02T07:34:21.879Z,24.70
2019-05-02T07:37:48.763Z,24.80
2019-05-02T07:40:59.573Z,24.70
2019-05-02T07:44:04.397Z,24.80
2019-05-02T07:47:28.839Z,24.80
2019-05-02T07:50:46.398Z,24.80
2019-05-02T07:53:59.419Z,24.80
2019-05-02T07:57:25.373Z,24.80
2019-05-02T08:00:39.376Z,24.80
2019-05-02T08:03:42.638Z,24.80
2019-05-02T08:07:05.338Z,24.80
2019-05-02T08:10:08.647Z,24.80
2019-05-02T08:13:31.618Z,24.90
2019-05-02T08:16:48.565Z,24.90
2019-05-02T08:20:04.749Z,24.90
2019-05-02T08:23:27.887Z,24.90
2019-05-02T08:26:53.327Z,24.90
2019-05-02T08:33:44.814Z,24.90
2019-05-02T08:36:58.841Z,24.90
2019-05-02T08:40:22.595Z,24.90
2019-05-02T08:43:40.061Z,25.00
2019-05-02T08:46:55.192Z,25.00
2019-05-02T08:49:58.451Z,25.00
2019-05-02T08:53:22.283Z,25.00
2019-05-02T08:56:36.596Z,25.00
2019-05-02T08:59:40.920Z,25.00
2019-05-02T09:03:04.741Z,25.00
2019-05-02T09:06:22.499Z,25.00
2019-05-02T09:09:43.659Z,25.00
2019-05-02T09:12:59.190Z,25.00
2019-05-02T09:16:05.294Z,25.00
2019-05-02T09:19:26.734Z,25.00
2019-05-02T09:22:46.713Z,25.00
2019-05-02T09:25:47.179Z,25.00
2019-05-02T09:29:09.973Z,25.00
2019-05-02T09:32:26.881Z,25.00
2019-05-02T09:35:42.030Z,25.00
2019-05-02T09:39:16.022Z,25.00
2019-05-02T09:42:38.684Z,25.00
2019-05-02T09:45:54.050Z,25.00
2019-05-02T09:49:13.446Z,25.00
2019-05-02T09:52:39.167Z,25.10
2019-05-02T09:55:52.174Z,25.00
2019-05-02T09:59:23.387Z,25.10
2019-05-02T10:02:28.465Z,25.00
2019-05-02T10:05:43.040Z,25.00
2019-05-02T10:08:46.806Z,25.10
2019-05-02T10:11:52.484Z,25.10
2019-05-02T10:14:55.986Z,25.10
2019-05-02T10:18:10.278Z,25.10
2019-05-02T10:21:07.961Z,25.10
2019-05-02T10:24:19.114Z,25.10
2019-05-02T10:27:33.196Z,25.10
2019-05-02T10:30:52.547Z,25.10
2019-05-02T10:33:53.611Z,25.10
2019-05-02T10:37:16.283Z,25.10
2019-05-02T10:40:29.275Z,25.10
2019-05-02T10:43:55.896Z,25.10
2019-05-02T10:47:06.579Z,25.20
2019-05-02T10:50:48.436Z,25.20
2019-05-02T10:54:03.743Z,25.20
2019-05-02T10:57:19.034Z,25.20
2019-05-02T11:00:34.227Z,25.20
2019-05-02T11:07:32.689Z,25.20
2019-05-02T11:10:55.468Z,25.30
2019-05-02T11:14:17.897Z,25.20
2019-05-02T11:17:42.238Z,25.30
2019-05-02T11:20:59.085Z,25.30
2019-05-02T11:24:02.474Z,25.30
2019-05-02T11:27:17.387Z,25.40
2019-05-02T11:30:32.784Z,25.40
2019-05-02T11:33:46.518Z,25.40
2019-05-02T11:37:09.191Z,24.90
2019-05-02T11:40:12.945Z,25.40
2019-05-02T11:43:37.201Z,25.40
2019-05-02T11:46:52.193Z,25.40
2019-05-02T11:50:14.987Z,25.40
2019-05-02T11:53:32.538Z,25.50
2019-05-02T11:56:35.291Z,25.50
2019-05-02T11:59:38.522Z,25.50
2019-05-02T12:02:58.047Z,25.50
2019-05-02T12:06:01.965Z,25.50
2019-05-02T12:09:37.333Z,25.50
2019-05-02T12:13:02.037Z,25.60
2019-05-02T12:16:15.258Z,25.50
2019-05-02T12:19:37.936Z,25.60
2019-05-02T12:22:53.430Z,25.60
2019-05-02T12:26:06.932Z,24.50
2019-05-02T12:29:29.618Z,25.60
2019-05-02T12:32:42.887Z,25.60
2019-05-02T12:35:46.119Z,25.60
2019-05-02T12:39:02.405Z,25.60
2019-05-02T12:42:18.248Z,25.60
2019-05-02T12:45:21.986Z,25.70
2019-05-02T12:48:44.722Z,25.70
2019-05-02T12:55:22.198Z,25.70
2019-05-02T12:58:46.325Z,25.70
2019-05-02T13:01:51.689Z,25.70
2019-05-02T13:05:13.959Z,25.70
2019-05-02T13:08:26.884Z,25.70
2019-05-02T13:12:08.750Z,25.70
2019-05-02T13:15:22.093Z,25.70
2019-05-02T13:18:44.859Z,25.80
2019-05-02T13:22:02.318Z,25.80
2019-05-02T13:32:18.950Z,25.80
2019-05-02T13:39:04.270Z,25.80
2019-05-02T13:42:17.566Z,25.90
2019-05-02T13:45:35.052Z,25.90
2019-05-02T13:48:57.726Z,25.90
2019-05-02T13:52:11.804Z,25.90
2019-05-02T13:55:53.761Z,25.90
2019-05-02T13:59:10.644Z,25.90
2019-05-02T14:02:25.983Z,26.00
2019-05-02T14:09:16.964Z,26.00
2019-05-02T14:12:55.090Z,26.00
2019-05-02T14:16:08.396Z,26.00
2019-05-02T14:19:31.920Z,26.10
2019-05-02T14:22:36.048Z,26.10
2019-05-02T14:25:58.711Z,26.10
2019-05-02T14:29:16.125Z,26.10
2019-05-02T14:32:27.312Z,26.10
2019-05-02T14:35:50.054Z,26.10
2019-05-02T14:38:53.302Z,26.10
2019-05-02T14:42:24.493Z,26.10
2019-05-02T14:45:31.949Z,26.10
2019-05-02T14:48:45.941Z,26.10
2019-05-02T14:52:08.635Z,26.20
2019-05-02T14:55:25.640Z,26.20
2019-05-02T14:58:46.543Z,26.20
2019-05-02T15:02:07.499Z,26.20
2019-05-02T15:05:19.229Z,26.20
2019-05-02T15:08:44.742Z,26.20
2019-05-02T15:12:02.340Z,26.20
2019-05-02T15:15:17.101Z,26.20
2019-05-02T15:18:32.123Z,26.20
2019-05-02T15:21:56.141Z,26.20
2019-05-02T15:24:59.868Z,26.20
2019-05-02T15:28:22.984Z,26.20
2019-05-02T15:31:46.763Z,26.20
2019-05-02T15:35:28.619Z,26.30
2019-05-02T15:38:45.628Z,26.20
2019-05-02T15:42:05.968Z,26.30
2019-05-02T15:48:57.289Z,26.20
2019-05-02T15:52:18.947Z,26.20
2019-05-02T15:55:21.892Z,26.20
2019-05-02T16:09:13.342Z,26.20
2019-05-02T16:30:26.129Z,26.20
2019-05-02T16:37:13.638Z,26.20
2019-05-02T16:44:12.859Z,26.10
2019-05-02T17:05:08.065Z,26.10
2019-05-02T17:18:48.183Z,26.10
2019-05-02T17:22:38.634Z,26.10
